地図

経路データ

SID SEASON NUMBER BASIN SUBBASIN NAME ISO_TIME NATURE LAT LON WMO_WIND WMO_PRES WMO_AGENCY TRACK_TYPE DIST2LAND LANDFALL IFLAG USA_AGENCY USA_ATCF_ID USA_LAT USA_LON USA_RECORD USA_STATUS USA_WIND USA_PRES USA_SSHS USA_R34_NE USA_R34_SE USA_R34_SW USA_R34_NW USA_R50_NE USA_R50_SE USA_R50_SW USA_R50_NW USA_R64_NE USA_R64_SE USA_R64_SW USA_R64_NW USA_POCI USA_ROCI USA_RMW USA_EYE TOKYO_LAT TOKYO_LON TOKYO_GRADE TOKYO_WIND TOKYO_PRES TOKYO_R50_DIR TOKYO_R50_LONG TOKYO_R50_SHORT TOKYO_R30_DIR TOKYO_R30_LONG TOKYO_R30_SHORT TOKYO_LAND CMA_LAT CMA_LON CMA_CAT CMA_WIND CMA_PRES HKO_LAT HKO_LON HKO_CAT HKO_WIND HKO_PRES NEWDELHI_LAT NEWDELHI_LON NEWDELHI_GRADE NEWDELHI_WIND NEWDELHI_PRES NEWDELHI_CI NEWDELHI_DP NEWDELHI_POCI REUNION_LAT REUNION_LON REUNION_TYPE REUNION_WIND REUNION_PRES REUNION_TNUM REUNION_CI REUNION_RMW REUNION_R34_NE REUNION_R34_SE REUNION_R34_SW REUNION_R34_NW REUNION_R50_NE REUNION_R50_SE REUNION_R50_SW REUNION_R50_NW REUNION_R64_NE REUNION_R64_SE REUNION_R64_SW REUNION_R64_NW BOM_LAT BOM_LON BOM_TYPE BOM_WIND BOM_PRES BOM_TNUM BOM_CI BOM_RMW BOM_R34_NE BOM_R34_SE BOM_R34_SW BOM_R34_NW BOM_R50_NE BOM_R50_SE BOM_R50_SW BOM_R50_NW BOM_R64_NE BOM_R64_SE BOM_R64_SW BOM_R64_NW BOM_ROCI BOM_POCI BOM_EYE BOM_POS_METHOD BOM_PRES_METHOD NADI_LAT NADI_LON NADI_CAT NADI_WIND NADI_PRES WELLINGTON_LAT WELLINGTON_LON WELLINGTON_WIND WELLINGTON_PRES DS824_LAT DS824_LON DS824_STAGE DS824_WIND DS824_PRES TD9636_LAT TD9636_LON TD9636_STAGE TD9636_WIND TD9636_PRES TD9635_LAT TD9635_LON TD9635_WIND TD9635_PRES TD9635_ROCI NEUMANN_LAT NEUMANN_LON NEUMANN_CLASS NEUMANN_WIND NEUMANN_PRES MLC_LAT MLC_LON MLC_CLASS MLC_WIND MLC_PRES USA_GUST BOM_GUST BOM_GUST_PER REUNION_GUST REUNION_GUST_PER USA_SEAHGT USA_SEARAD_NE USA_SEARAD_SE USA_SEARAD_SW USA_SEARAD_NW STORM_SPEED STORM_DIR
1964004S14125 1964 1 SI WA BESSIE 1964-01-03 23:00:00 NR -13.8000 125.300 main 64 64 __________O___ -1 -13.8000 125.300 1 1 0
1964004S14125 1964 1 SI WA BESSIE 1964-01-04 00:00:00 TS -13.8056 125.290 main 64 62 O________OP___ jtwc_sh SH051964 -13.8000 125.300 -1 -13.8000 125.300 TC -13.8111 125.279 1 1 227
1964004S14125 1964 1 SI WA BESSIE 1964-01-04 03:00:00 TS -13.8542 125.238 main 62 62 P________PP___ SH051964 -13.8625 125.253 -1 -13.8625 125.253 TC -13.8432 125.220 1 1 228
1964004S14125 1964 1 SI WA BESSIE 1964-01-04 06:00:00 TS -13.8885 125.186 main 62 62 O________OP___ jtwc_sh SH051964 -13.9000 125.200 -1 -13.9000 125.200 TC -13.8712 125.165 1 1 246
1964004S14125 1964 1 SI WA BESSIE 1964-01-04 09:00:00 TS -13.8973 125.135 main 70 70 P________PP___ SH051964 -13.9000 125.142 -1 -13.9000 125.142 TC -13.8918 125.121 1 1 263
1964004S14125 1964 1 SI WA BESSIE 1964-01-04 11:00:00 TS -13.8979 125.107 main 70 70 P________PO___ SH051964 -13.8969 125.111 -1 -13.8969 125.111 TC -13.9000 125.100 1 1 265
1964004S14125 1964 1 SI WA BESSIE 1964-01-04 12:00:00 TS -13.9007 125.097 main 70 70 O________OP___ jtwc_sh SH051964 -13.9000 125.100 -1 -13.9000 125.100 TC -13.9022 125.092 1 1 199
1964004S14125 1964 1 SI WA BESSIE 1964-01-04 15:00:00 TS -13.9354 125.092 main 70 63 P________PP___ SH051964 -13.9500 125.100 -1 -13.9500 125.100 TC -13.9061 125.075 1 1 0
1964004S14125 1964 1 SI WA BESSIE 1964-01-04 18:00:00 TS -13.9728 125.086 main 63 63 O________OP___ jtwc_sh SH051964 -14.0000 125.100 -1 -14.0000 125.100 TC -13.9185 125.059 1 1 225
1964004S14125 1964 1 SI WA BESSIE 1964-01-04 21:00:00 TS -13.9749 125.054 main 63 63 P________PP___ SH051964 -13.9850 125.065 -1 -13.9850 125.065 TC -13.9548 125.031 1 1 255
1964004S14125 1964 1 SI WA BESSIE 1964-01-04 23:00:00 TS -13.9903 125.017 main 70 70 P________PO___ SH051964 -13.9855 125.025 -1 -13.9855 125.025 TC -14.0000 125.000 1 1 238
1964004S14125 1964 1 SI WA BESSIE 1964-01-05 00:00:00 TS -14.0115 124.992 main 70 59 O________OP___ jtwc_sh SH051964 -14.0000 125.000 -1 -14.0000 125.000 TC -14.0345 124.977 1 3 216
1964004S14125 1964 1 SI WA BESSIE 1964-01-05 03:00:00 TS -14.1403 124.902 main 64 54 P________PP___ SH051964 -14.1275 124.908 -1 -14.1275 124.908 TC -14.1659 124.890 1 4 212
1964004S14125 1964 1 SI WA BESSIE 1964-01-05 06:00:00 TS -14.3083 124.796 main 54 48 O________OP___ jtwc_sh SH051964 -14.3000 124.800 -1 -14.3000 124.800 TC -14.3249 124.787 1 4 212
1964004S14125 1964 1 SI WA BESSIE 1964-01-05 09:00:00 TS -14.4642 124.692 main 54 54 P________PP___ SH051964 -14.4500 124.700 -1 -14.4500 124.700 TC -14.4926 124.675 1 4 213
1964004S14125 1964 1 SI WA BESSIE 1964-01-05 11:00:00 TS -14.5667 124.622 main 64 64 P________PO___ SH051964 -14.5500 124.633 -1 -14.5500 124.633 TC -14.6000 124.600 1 4 212
1964004S14125 1964 1 SI WA BESSIE 1964-01-05 12:00:00 TS -14.6146 124.591 main 64 55 O________OP___ jtwc_sh SH051964 -14.6000 124.600 -1 -14.6000 124.600 TC -14.6438 124.572 1 3 212
1964004S14125 1964 1 SI WA BESSIE 1964-01-05 15:00:00 TS -14.7613 124.496 main 55 54 P________PP___ SH051964 -14.7575 124.500 -1 -14.7575 124.500 TC -14.7690 124.488 1 3 213
1964004S14125 1964 1 SI WA BESSIE 1964-01-05 18:00:00 TS -14.8967 124.399 main 54 48 O________OP___ jtwc_sh SH051964 -14.9000 124.400 -1 -14.9000 124.400 TC -14.8902 124.398 1 3 217
1964004S14125 1964 1 SI WA BESSIE 1964-01-05 21:00:00 TS -15.0045 124.306 main 58 54 P________PP___ SH051964 -15.0000 124.315 -1 -15.0000 124.315 TC -15.0135 124.289 1 3 222
1964004S14125 1964 1 SI WA BESSIE 1964-01-05 23:00:00 TS -15.0757 124.230 main 59 59 P________PO___ SH051964 -15.0636 124.245 -1 -15.0636 124.245 TC -15.1000 124.200 1 3 227
1964004S14125 1964 1 SI WA BESSIE 1964-01-06 00:00:00 TS -15.1155 124.183 main 59 54 O________OP___ jtwc_sh SH051964 -15.1000 124.200 -1 -15.1000 124.200 TC -15.1466 124.150 1 4 229
1964004S14125 1964 1 SI WA BESSIE 1964-01-06 03:00:00 TS -15.2590 124.009 main 54 54 P________PP___ SH051964 -15.2425 124.022 -1 -15.2425 124.022 TC -15.2920 123.981 1 5 231
1964004S14125 1964 1 SI WA BESSIE 1964-01-06 06:00:00 TS -15.4144 123.795 main 68 68 O________OP___ jtwc_sh SH051964 -15.4000 123.800 -1 -15.4000 123.800 TC -15.4433 123.784 1 5 241
1964004S14125 1964 1 SI WA BESSIE 1964-01-06 07:00:00 TS -15.4291 123.688 999 bom main 78 78 P_____O__PP___ SH051964 -15.4500 123.725 -1 -15.0000 123.300 999 -15.4500 123.725 TC -15.4945 123.712 1 6 252
1964004S14125 1964 1 SI WA BESSIE 1964-01-06 09:00:00 TS -15.5063 123.498 main 81 74 P_____P__PP___ SH051964 -15.5500 123.565 -1 -15.1495 123.105 -15.5500 123.565 TC -15.5973 123.561 1 6 246
1964004S14125 1964 1 SI WA BESSIE 1964-01-06 11:00:00 TS -15.5929 123.298 main 79 79 P_____P__PO___ SH051964 -15.6500 123.392 -1 -15.2977 122.912 -15.6500 123.392 TC -15.7000 123.400 1 7 251
1964004S14125 1964 1 SI WA BESSIE 1964-01-06 12:00:00 TS -15.6111 123.178 main 85 78 O_____P__OP_O_ jtwc_sh SH051964 -15.7000 123.300 -1 -15.3709 122.817 -15.7000 123.300 TC -15.7513 123.312 1 -15.3000 123.100 TC 35 998 6 247
1964004S14125 1964 1 SI WA BESSIE 1964-01-06 15:00:00 TS -15.7641 122.889 main 78 70 P_____P__PP_P_ SH051964 -15.8500 123.000 -1 -15.5854 122.541 -15.8500 123.000 TC -15.9056 123.030 1 -15.4950 122.855 TC 35 997 6 241
1964004S14125 1964 1 SI WA BESSIE 1964-01-06 18:00:00 TS -15.9205 122.605 main 74 69 O_____P__OP_O_ jtwc_sh SH051964 -16.0000 122.700 -1 -15.7890 122.284 -16.0000 122.700 TC -16.0582 122.739 1 -15.7000 122.600 TC 35 997 6 239
1964004S14125 1964 1 SI WA BESSIE 1964-01-06 21:00:00 TS -16.0797 122.341 main 77 77 P_____P__PP_P_ SH051964 -16.1500 122.427 -1 -15.9778 122.053 -16.1500 122.427 TC -16.2058 122.463 1 -15.9150 122.335 TC 35 997 6 237
1964004S14125 1964 1 SI WA BESSIE 1964-01-06 23:00:00 TS -16.1877 122.186 main 77 77 P_____P__PO_P_ SH051964 -16.2500 122.269 -1 -16.0936 121.918 -16.2500 122.269 TC -16.3000 122.300 1 -16.0448 122.172 TC 35 997 5 236
1964004S14125 1964 1 SI WA BESSIE 1964-01-07 00:00:00 TS -16.2318 122.107 main 85 78 O_____P__OP_O_ jtwc_sh SH051964 -16.3000 122.200 -1 -16.1481 121.857 -16.3000 122.200 TC -16.3437 122.232 1 -16.1000 122.100 TC 35 997 5 239
1964004S14125 1964 1 SI WA BESSIE 1964-01-07 01:00:00 TS -16.2736 122.039 997 bom main 85 84 P_____O__PP_P_ SH051964 -16.3526 122.136 -1 -16.2000 121.800 997 -16.3526 122.136 TC -16.3863 122.169 1 -16.1447 122.033 TC 35 996 4 233
1964004S14125 1964 1 SI WA BESSIE 1964-01-07 03:00:00 TS -16.3573 121.931 main 84 84 P_____P__PP_P_ SH051964 -16.4575 122.027 -1 -16.2962 121.701 -16.4575 122.027 TC -16.4689 122.055 1 -16.2150 121.920 TC 37 996 4 228
1964004S14125 1964 1 SI WA BESSIE 1964-01-07 06:00:00 TS -16.4731 121.809 main 85 84 O_____P__OP_O_ jtwc_sh SH051964 -16.6000 121.900 -1 -16.4234 121.586 -16.6000 121.900 TC -16.5901 121.909 1 -16.3000 121.800 TC 40 995 3 222
1964004S14125 1964 1 SI WA BESSIE 1964-01-07 09:00:00 TS -16.5783 121.721 main 84 84 P_____P__PP_P_ SH051964 -16.6925 121.807 -1 -16.5337 121.504 -16.6925 121.807 TC -16.7135 121.781 1 -16.4000 121.735 TC 42 993 3 218
1964004S14125 1964 1 SI WA BESSIE 1964-01-07 11:00:00 TS -16.6491 121.668 main 84 77 P_____P__PO_P_ SH051964 -16.7578 121.742 -1 -16.5997 121.466 -16.7578 121.742 TC -16.8000 121.700 1 -16.4667 121.711 TC 44 992 3 217
1964004S14125 1964 1 SI WA BESSIE 1964-01-07 12:00:00 TS -16.6884 121.637 main 86 81 O_____P__OP_O_ jtwc_sh SH051964 -16.8000 121.700 -1 -16.6310 121.451 -16.8000 121.700 TC -16.8491 121.650 1 -16.5000 121.700 TC 45 992 3 218
1964004S14125 1964 1 SI WA BESSIE 1964-01-07 15:00:00 TS -16.8308 121.520 main 91 86 P_____P__PP_P_ SH051964 -17.0001 121.493 -1 -16.7193 121.420 -17.0001 121.493 TC -17.0030 121.504 1 -16.6000 121.650 TC 47 990 4 217
1964004S14125 1964 1 SI WA BESSIE 1964-01-07 18:00:00 TS -16.9728 121.413 main 91 87 O_____P__OP_O_ jtwc_sh SH051964 -17.2000 121.300 -1 -16.8027 121.406 -17.2000 121.300 TC -17.1593 121.370 1 -16.7000 121.600 TC 50 989 3 212
1964004S14125 1964 1 SI WA BESSIE 1964-01-07 21:00:00 TS -17.0852 121.351 main 87 87 P_____P__PP_P_ SH051964 -17.3150 121.227 -1 -16.8850 121.401 -17.3150 121.227 TC -17.3088 121.258 1 -16.8000 121.543 TC 52 987 2 207
1964004S14125 1964 1 SI WA BESSIE 1964-01-07 23:00:00 TS -17.1524 121.324 main 95 95 P_____P__PO_P_ SH051964 -17.3719 121.209 -1 -16.9412 121.400 -17.3719 121.209 TC -17.4000 121.200 1 -16.8667 121.511 TC 54 986 2 197
1964004S14125 1964 1 SI WA BESSIE 1964-01-08 00:00:00 TS -17.1852 121.313 main 95 95 O_____P__OP_O_ jtwc_sh SH051964 -17.4000 121.200 -1 -16.9702 121.400 -17.4000 121.200 TC -17.4412 121.178 1 -16.9000 121.500 TC 55 986 2 193
1964004S14125 1964 1 SI WA BESSIE 1964-01-08 01:00:00 TS -17.2193 121.300 985 bom main 95 91 P_____O__PP_P_ SH051964 -17.4333 121.181 -1 -17.0000 121.400 985 -17.4333 121.181 TC -17.4807 121.160 1 -16.9307 121.494 TC 55 985 2 203
1964004S14125 1964 1 SI WA BESSIE 1964-01-08 03:00:00 TS -17.2885 121.275 main 91 87 P_____P__PP_P_ SH051964 -17.5000 121.143 -1 -17.0716 121.375 -17.5000 121.143 TC -17.5545 121.135 1 -16.9925 121.492 TC 55 984 2 196
1964004S14125 1964 1 SI WA BESSIE 1964-01-08 06:00:00 TS -17.3934 121.247 main 98 96 O_____P__OP_O_ jtwc_sh SH051964 -17.6000 121.100 -1 -17.1809 121.343 -17.6000 121.100 TC -17.6545 121.115 1 -17.1000 121.500 TC 55 983 2 192
1964004S14125 1964 1 SI WA BESSIE 1964-01-08 09:00:00 TS -17.5040 121.238 main 96 95 P_____P__PP_P_ SH051964 -17.7000 121.100 -1 -17.2920 121.316 -17.7000 121.100 TC -17.7443 121.106 1 -17.2500 121.507 TC 57 981 2 187
1964004S14125 1964 1 SI WA BESSIE 1964-01-08 11:00:00 TS -17.5776 121.233 main 95 95 P_____P__PO_P_ SH051964 -17.7667 121.103 -1 -17.3670 121.301 -17.7667 121.103 TC -17.8000 121.100 2 -17.3531 121.506 TC 59 980 2 193
1964004S14125 1964 1 SI WA BESSIE 1964-01-08 12:00:00 TS -17.6128 121.228 main 95 95 O_____P__OP_O_ jtwc_sh SH051964 -17.8000 121.100 -1 -17.4046 121.295 -17.8000 121.100 TC -17.8222 121.088 2 -17.4000 121.500 TC 60 980 2 197
1964004S14125 1964 1 SI WA BESSIE 1964-01-08 15:00:00 TS -17.7140 121.193 main 96 96 P_____P__PP_P_ SH051964 -17.9075 121.050 -1 -17.5183 121.282 -17.9075 121.050 TC -17.8807 121.050 2 -17.5075 121.450 TC 62 979 2 198
1964004S14125 1964 1 SI WA BESSIE 1964-01-08 18:00:00 TS -17.8082 121.161 main 97 92 O_____P__OP_O_ jtwc_sh SH051964 -18.0000 121.000 -1 -17.6327 121.277 -18.0000 121.000 TC -17.9418 121.018 2 -17.6000 121.400 TC 65 978 2 194
1964004S14125 1964 1 SI WA BESSIE 1964-01-08 21:00:00 TS -17.8856 121.155 main 92 92 P_____P__PP_P_ SH051964 -18.0275 120.992 -1 -17.7473 121.280 -18.0275 120.992 TC -18.0241 121.000 2 -17.7000 121.385 TC 67 976 2 0
1964004S14125 1964 1 SI WA BESSIE 1964-01-08 23:00:00 TS -17.9465 121.161 main 92 84 P_____P__PO_P_ SH051964 -18.0631 120.997 -1 -17.8237 121.288 -18.0631 120.997 TC -18.1000 121.000 2 -17.7667 121.392 TC 69 975 2 0
1964004S14125 1964 1 SI WA BESSIE 1964-01-09 00:00:00 TS -17.9861 121.166 main 84 84 O_____P__OP_O_ jtwc_sh SH051964 -18.1000 121.000 -1 -17.8619 121.293 -18.1000 121.000 TC -18.1548 121.000 2 -17.8000 121.400 TC 70 975 3 0
1964004S14125 1964 1 SI WA BESSIE 1964-01-09 01:00:00 TS -18.0355 121.167 975 bom main 84 76 P_____O__PP_P_ SH051964 -18.1657 120.992 -1 -17.9000 121.300 975 -18.1657 120.992 TC -18.2152 121.003 2 -17.8307 121.411 TC 70 974 3 176
1964004S14125 1964 1 SI WA BESSIE 1964-01-09 03:00:00 TS -18.1439 121.176 main 76 62 P_____P__PP_P_ SH051964 -18.3350 120.978 -1 -17.9454 121.325 -18.3350 120.978 TC -18.3488 121.016 2 -17.8925 121.443 TC 72 972 3 170
1964004S14125 1964 1 SI WA BESSIE 1964-01-09 06:00:00 TS -18.3142 121.212 main 62 43 O_____P__OP_O_ jtwc_sh SH051964 -18.6000 121.000 -1 -18.0070 121.375 -18.6000 121.000 TC -18.5653 121.057 2 -18.0000 121.500 TC 75 970 3 160
1964004S14125 1964 1 SI WA BESSIE 1964-01-09 09:00:00 TS -18.4575 121.290 main 43 33 P_____P__PP_P_ SH051964 -18.7650 121.127 -1 -18.0692 121.433 -18.7650 121.127 TC -18.7763 121.130 2 -18.1500 121.550 TC 77 967 3 149
1964004S14125 1964 1 SI WA BESSIE 1964-01-09 11:00:00 TS -18.5450 121.357 main 33 31 P_____P__PO_P_ SH051964 -18.8553 121.242 -1 -18.1156 121.474 -18.8553 121.242 TC -18.9000 121.200 2 -18.2531 121.583 TC 79 964 3 142
1964004S14125 1964 1 SI WA BESSIE 1964-01-09 12:00:00 TS -18.5865 121.392 main 31 23 O_____P__OP_O_ jtwc_sh SH051964 -18.9000 121.300 -1 -18.1414 121.495 -18.9000 121.300 TC -18.9505 121.242 2 -18.3000 121.600 TC 80 964 3 143
1964004S14125 1964 1 SI WA BESSIE 1964-01-09 15:00:00 TS -18.7150 121.493 main 23 10 P_____P__PP_P_ SH051964 -19.0650 121.443 -1 -18.2331 121.557 -19.0650 121.443 TC -19.0813 121.394 2 -18.4075 121.650 TC 85 961 3 141
1964004S14125 1964 1 SI WA BESSIE 1964-01-09 18:00:00 TS -18.8318 121.604 main 10 0 O_____P__OP_O_ jtwc_sh SH051964 -19.2000 121.600 -1 -18.3536 121.614 -19.2000 121.600 TC -19.1838 121.575 2 -18.5000 121.700 TC 90 958 3 133
1964004S14125 1964 1 SI WA BESSIE 1964-01-09 21:00:00 TS -18.9282 121.734 main 0 0 P_____P__PP_P_ SH051964 -19.2725 121.800 -1 -18.5124 121.661 -19.2725 121.800 TC -19.2610 121.770 2 -18.5775 121.757 TC 77 955 3 128
1964004S14125 1964 1 SI WA BESSIE 1964-01-09 23:00:00 TS -18.9899 121.819 main 0 0 P_____P__PO_P_ SH051964 -19.2943 121.936 -1 -18.6442 121.685 -19.2943 121.936 TC -19.3000 121.900 4 -18.6495 121.789 TC 69 952 3 128
1964004S14125 1964 1 SI WA BESSIE 1964-01-10 00:00:00 TS -19.0221 121.859 main 0 0 O_____P__OP_O_ jtwc_sh SH051964 -19.3000 122.000 -1 -18.7189 121.693 -19.3000 122.000 TC -19.3135 121.961 4 -18.7000 121.800 TC 65 952 3 134
1964004S14125 1964 1 SI WA BESSIE 1964-01-10 01:00:00 TS -19.0576 121.893 950 bom main 0 0 P_____O__PP_P_ SH051964 -19.3031 122.053 -1 -18.8000 121.700 950 4 -19.3031 122.053 TC -19.3233 122.022 4 -18.7688 121.801 TC 62 952 3 143
1964004S14125 1964 1 SI WA BESSIE 1964-01-10 03:00:00 TS -19.1361 121.954 main 0 0 P_____P__PP_P_ SH051964 -19.2999 122.150 -1 -19.0006 121.689 -19.2999 122.150 TC -19.3353 122.144 4 -18.9350 121.793 TC 57 954 3 144
1964004S14125 1964 1 SI WA BESSIE 1964-01-10 06:00:00 TS -19.2597 122.051 main 0 0 O_____P__OP_O_ jtwc_sh SH051964 -19.3000 122.300 -1 -19.3128 121.681 -19.3000 122.300 TC -19.3463 122.325 4 -19.2000 121.800 TC 50 957 3 139
1964004S14125 1964 1 SI WA BESSIE 1964-01-10 08:00:00 TS -19.3405 122.139 bom main 0 0 P_____O__PP_P_ SH051964 -19.3146 122.436 -1 -19.5000 121.700 -19.3146 122.436 TC -19.3584 122.440 4 -19.3521 121.840 TC 46 958 4 133
1964004S14125 1964 1 SI WA BESSIE 1964-01-10 09:00:00 TS -19.3792 122.188 main 0 0 P_____P__PP_P_ SH051964 -19.3275 122.508 -1 -19.5732 121.726 -19.3275 122.508 TC -19.3684 122.495 4 -19.4225 121.870 TC 45 959 4 129
1964004S14125 1964 1 SI WA BESSIE 1964-01-10 11:00:00 TS -19.4570 122.290 main 0 0 P_____P__PO_P_ SH051964 -19.3693 122.642 -1 -19.6938 121.804 -19.3693 122.642 TC -19.4000 122.600 2 -19.5474 121.950 TC 41 961 4 130
1964004S14125 1964 1 SI WA BESSIE 1964-01-10 12:00:00 TS -19.4976 122.341 main 0 0 O_____P__OP_O_ jtwc_sh SH051964 -19.4000 122.700 -1 -19.7425 121.854 -19.4000 122.700 TC -19.4282 122.647 2 -19.6000 122.000 TC 40 962 4 132
1964004S14125 1964 1 SI WA BESSIE 1964-01-10 15:00:00 TS -19.6275 122.485 main 0 0 P_____P__PP_P_ SH051964 -19.5425 122.815 -1 -19.8505 122.039 -19.5425 122.815 TC -19.5349 122.777 2 -19.7225 122.185 TC 37 964 4 133
1964004S14125 1964 1 SI WA BESSIE 1964-01-10 18:00:00 TS -19.7507 122.629 main 0 0 O_____P__OP_O_ jtwc_sh SH051964 -19.7000 122.900 -1 -19.9152 122.260 -19.7000 122.900 TC -19.6651 122.897 2 -19.8000 122.400 TC 35 967 4 129
1964004S14125 1964 1 SI WA BESSIE 1964-01-10 21:00:00 TS -19.8464 122.775 main 0 0 P_____P__PP_P_ SH051964 -19.8000 122.985 -1 -19.9548 122.496 -19.8000 122.985 TC -19.8061 123.016 2 -19.8500 122.608 TC 32 970 3 124
1964004S14125 1964 1 SI WA BESSIE 1964-01-10 23:00:00 TS -19.9068 122.876 main 0 0 P_____P__PO_P_ SH051964 -19.8636 123.055 -1 -19.9762 122.652 -19.8636 123.055 TC -19.9000 123.100 2 -19.8802 122.739 TC 30 972 3 123
1964004S14125 1964 1 SI WA BESSIE 1964-01-11 00:00:00 TS -19.9380 122.929 main 0 0 O_____P__OP_O_ jtwc_sh SH051964 -19.9000 123.100 -1 -19.9875 122.728 -19.9000 123.100 TC -19.9404 123.148 2 -19.9000 122.800 TC 30 974 4 122
1964004S14125 1964 1 SI WA BESSIE 1964-01-11 01:00:00 TS -19.9739 122.987 980 bom main 0 0 P_____O__PP_P_ SH051964 -19.9469 123.160 -1 -20.0000 122.800 980 -19.9469 123.160 TC -19.9807 123.197 2 -19.9276 122.858 TC 30 975 3 130
1964004S14125 1964 1 SI WA BESSIE 1964-01-11 03:00:00 TS -20.0399 123.053 main 0 0 P_____P__PP_P_ SH051964 -20.0501 123.300 -1 -19.9667 122.614 -20.0501 123.300 TC -20.0613 123.298 2 -19.9925 122.965 TC 30 978 2 140
1964004S14125 1964 1 SI WA BESSIE 1964-01-11 06:00:00 TS -20.1325 123.127 main 0 0 O_____P__OP_O_ jtwc_sh SH051964 -20.2000 123.500 -1 -19.8860 122.229 -20.2000 123.500 TC -20.1837 123.451 2 -20.1000 123.100 TC 30 982 2 151
1964004S14125 1964 1 SI WA BESSIE 1964-01-11 09:00:00 TS -20.2052 123.159 main 0 0 P_____P__PP_P_ SH051964 -20.2999 123.608 -1 -19.7995 121.817 -20.2999 123.608 TC -20.3110 123.603 2 -20.2000 123.200 TC 30 984 2 153
1964004S14125 1964 1 SI WA BESSIE 1964-01-11 11:00:00 TS -20.2549 123.181 main 0 0 P_____P__PO_P_ SH051964 -20.3636 123.666 -1 -19.7560 121.582 -20.3636 123.666 TC -20.4000 123.700 2 -20.2666 123.264 TC 30 985 1 193
1964004S14125 1964 1 SI WA BESSIE 1964-01-11 12:00:00 TS -20.2721 123.153 main 0 0 O_____P__OP_O_ jtwc_sh SH051964 -20.4000 123.700 -1 -19.7425 121.489 -20.4000 123.700 TC -20.4461 123.747 2 -20.3000 123.300 TC 30 986 2 0
1964004S14125 1964 1 SI WA BESSIE 1964-01-11 15:00:00 TS -20.3547 123.183 main 0 0 P_____P__PP_P_ SH051964 -20.5376 123.835 -1 -19.7511 121.358 -20.5376 123.835 TC -20.5901 123.879 2 -20.4075 123.450 TC 30 988 2 160
1964004S14125 1964 1 SI WA BESSIE 1964-01-11 18:00:00 TS -20.4302 123.216 main 0 0 O_____P__OP_O_ jtwc_sh SH051964 -20.7000 124.000 -1 -19.8615 121.536 -20.7000 124.000 TC -20.7408 124.003 2 -20.5000 123.600 TC 30 990 1 150
1964004S14125 1964 1 SI WA BESSIE 1964-01-11 21:00:00 TS -20.4835 123.253 main 0 0 ______P___P_P_ SH051964 -1 -20.1079 122.136 TC -20.8957 124.122 2 -20.5421 123.625 TC 30 991 3 120
1964004S14125 1964 1 SI WA BESSIE 1964-01-11 23:00:00 TS -20.5549 123.441 main 0 0 ______P___O_P_ SH051964 -1 -20.3631 122.830 TC -21.0000 124.200 2 -20.5742 123.707 TC 30 992 6 107
1964004S14125 1964 1 SI WA BESSIE 1964-01-12 00:00:00 TS -20.5760 123.568 main 0 0 ______P_____O_ -1 -20.5210 123.278 2 -20.6000 123.800 TC 30 993 13 106
1964004S14125 1964 1 SI WA BESSIE 1964-01-12 01:00:00 TS -20.6760 123.883 995 bom main 0 0 ______O_____P_ -1 -20.7000 123.800 995 2 -20.6521 123.967 TC 29 993 22 109
1964004S14125 1964 1 SI WA BESSIE 1964-01-12 02:30:00 TS -20.8715 124.493 995 bom main 0 0 ______O_____P_ -1 -21.0000 124.700 995 2 -20.7429 124.286 TC 27 993 24 109
1964004S14125 1964 1 SI WA BESSIE 1964-01-12 03:00:00 TS -20.9320 124.695 main 0 0 ______P_____P_ -1 -21.0906 124.987 2 -20.7733 124.404 TC 27 994 21 105
1964004S14125 1964 1 SI WA BESSIE 1964-01-12 06:00:00 TS -21.1916 125.755 main 0 0 ______P_____O_ -1 -21.4832 126.411 2 -20.9000 125.100 TC 25 995 17 101
1964004S14125 1964 1 SI WA BESSIE 1964-01-12 09:00:00 TS -21.2434 126.456 main 0 0 ______P_____P_ -1 -21.6497 127.375 2 -20.8371 125.538 TC 25 995 11 89
1964004S14125 1964 1 SI WA BESSIE 1964-01-12 12:00:00 TS -21.1660 126.924 main 0 0 ______P_____O_ -1 -21.6321 127.948 -20.7000 125.900 TC 25 995 8 74
1964004S14125 1964 1 SI WA BESSIE 1964-01-12 15:00:00 TS -21.0301 127.251 main 0 0 ______P_____P_ -1 -21.4679 128.203 -20.5924 126.300 TC 22 995 7 66
1964004S14125 1964 1 SI WA BESSIE 1964-01-12 18:00:00 TS -20.8954 127.564 main 0 0 ______P_____O_ -1 -21.1919 128.213 -20.5000 126.700 TC 20 995 5 48
1964004S14125 1964 1 SI WA BESSIE 1964-01-12 21:00:00 TS -20.6786 127.671 main 0 0 ______P_____P_ -1 -20.8375 128.052 -20.4402 127.100 TC 20 995 5 15
1964004S14125 1964 1 SI WA BESSIE 1964-01-13 00:00:00 TS -20.4251 127.696 main 0 0 ______P_____O_ -1 -20.4376 127.795 -20.4000 127.500 TC 20 995 6 4
1964004S14125 1964 1 SI WA BESSIE 1964-01-13 01:00:00 NR -20.3000 127.700 996 bom main 0 ______O_______ -1 -20.3000 127.700 996 TC 8 1

IBTrACS Databaseについて

本データベースは、米国NOAAが公開する1842年以降の世界の熱帯低気圧のベストトラックデータアーカイブInternational Best Track Archive for Climate Stewardship (IBTrACS)を、ウェブで閲覧しやすい形式に変換したものです。

最終更新日:2021-12-01